createdAt,value
2023-11-28T00:01:07.280Z,100
2023-11-28T00:11:07.317Z,100
2023-11-28T00:21:07.313Z,100
2023-11-28T00:31:07.330Z,100
2023-11-28T00:41:07.309Z,100
2023-11-28T00:51:07.314Z,100
2023-11-28T01:01:07.309Z,100
2023-11-28T01:11:07.311Z,100
2023-11-28T01:21:07.339Z,100
2023-11-28T01:31:07.363Z,100
2023-11-28T01:41:07.342Z,100
2023-11-28T01:51:07.308Z,100
2023-11-28T02:01:07.310Z,100
2023-11-28T02:11:07.354Z,95
2023-11-28T02:21:07.469Z,90
2023-11-28T02:31:07.458Z,95
2023-11-28T02:41:07.490Z,94
2023-11-28T02:51:07.476Z,92
2023-11-28T03:01:07.364Z,92
2023-11-28T03:11:07.576Z,89
2023-11-28T03:21:07.531Z,86
2023-11-28T03:31:07.561Z,85
2023-11-28T03:41:08.924Z,82
2023-11-28T03:51:07.533Z,80
2023-11-28T04:01:07.515Z,77
2023-11-28T04:11:07.545Z,76
2023-11-28T04:21:07.594Z,74
2023-11-28T04:31:07.624Z,72
2023-11-28T04:41:07.488Z,70
2023-11-28T04:51:07.520Z,70
2023-11-28T05:01:07.577Z,69
2023-11-28T05:11:07.512Z,69
2023-11-28T05:21:09.312Z,68
2023-11-28T05:31:07.561Z,68
2023-11-28T05:41:07.609Z,69
2023-11-28T05:51:07.908Z,69
2023-11-28T06:01:07.533Z,69
2023-11-28T06:11:07.645Z,69
2023-11-28T06:21:07.736Z,68
2023-11-28T06:31:07.619Z,70
2023-11-28T06:41:07.599Z,71
2023-11-28T06:51:07.537Z,71
2023-11-28T07:01:07.615Z,72
2023-11-28T07:11:07.714Z,73
2023-11-28T07:21:07.607Z,74
2023-11-28T07:31:07.722Z,74
2023-11-28T07:41:07.728Z,73
2023-11-28T07:51:07.578Z,73
2023-11-28T08:01:07.541Z,76
2023-11-28T08:11:07.714Z,67
2023-11-28T08:21:07.636Z,67
2023-11-28T08:31:07.716Z,63
2023-11-28T08:41:07.525Z,74
2023-11-28T08:51:07.484Z,78
2023-11-28T09:01:07.595Z,77
2023-11-28T09:11:07.526Z,82
2023-11-28T09:21:07.483Z,86
2023-11-28T09:31:07.462Z,96
2023-11-28T09:41:07.524Z,100
2023-11-28T09:51:07.519Z,100
2023-11-28T10:01:07.498Z,100
2023-11-28T10:11:07.506Z,100
2023-11-28T10:21:07.467Z,98
2023-11-28T10:31:07.509Z,86
2023-11-28T10:41:07.473Z,78
2023-11-28T10:51:07.472Z,88
2023-11-28T11:01:07.497Z,90
2023-11-28T11:11:07.489Z,92
2023-11-28T11:21:07.484Z,100
2023-11-28T11:31:07.452Z,100
2023-11-28T11:41:07.472Z,100
2023-11-28T11:51:07.553Z,100
2023-11-28T12:01:07.467Z,100
2023-11-28T12:11:07.515Z,100
2023-11-28T12:21:07.444Z,100
2023-11-28T12:31:07.463Z,100
2023-11-28T12:41:10.521Z,100
2023-11-28T12:51:07.548Z,100
2023-11-28T13:01:07.462Z,98
2023-11-28T13:11:07.565Z,97
2023-11-28T13:21:07.449Z,96
2023-11-28T13:31:07.614Z,97
2023-11-28T13:41:07.786Z,99
2023-11-28T13:51:07.671Z,97
2023-11-28T14:01:07.592Z,97
2023-11-28T14:11:08.124Z,98
2023-11-28T14:21:09.058Z,97
2023-11-28T14:31:07.624Z,100
2023-11-28T14:41:07.415Z,100
2023-11-28T14:51:07.582Z,100
2023-11-28T15:01:07.412Z,100
2023-11-28T15:11:08.786Z,100
2023-11-28T15:21:07.425Z,100
2023-11-28T15:31:07.593Z,100
2023-11-28T15:41:07.606Z,100
2023-11-28T15:51:09.581Z,100
2023-11-28T16:01:07.437Z,100
2023-11-28T16:11:07.451Z,100
2023-11-28T16:21:07.414Z,98
2023-11-28T16:31:07.501Z,97
2023-11-28T16:41:07.420Z,94
2023-11-28T16:51:07.701Z,90
2023-11-28T17:01:07.605Z,86
2023-11-28T17:11:07.569Z,86
2023-11-28T17:21:07.592Z,81
2023-11-28T17:31:07.563Z,79
2023-11-28T17:41:07.596Z,80
2023-11-28T17:51:07.442Z,77
2023-11-28T18:01:07.573Z,75
2023-11-28T18:11:07.629Z,74
2023-11-28T18:21:14.660Z,73
2023-11-28T18:31:07.607Z,73
2023-11-28T18:41:07.506Z,74
2023-11-28T18:51:07.458Z,76
2023-11-28T19:01:07.466Z,75
2023-11-28T19:11:07.494Z,74
2023-11-28T19:21:07.486Z,72
2023-11-28T19:31:07.496Z,78
2023-11-28T19:41:07.482Z,100
2023-11-28T19:51:07.524Z,100
2023-11-28T20:01:07.475Z,54
2023-11-28T20:11:07.550Z,51
2023-11-28T20:21:07.544Z,51
2023-11-28T20:31:07.518Z,100
2023-11-28T20:41:07.588Z,99
2023-11-28T20:51:07.521Z,66
2023-11-28T21:01:07.567Z,82
2023-11-28T21:11:07.498Z,98
2023-11-28T21:21:07.505Z,100
2023-11-28T21:31:07.547Z,100
2023-11-28T21:41:07.568Z,100
2023-11-28T21:51:07.506Z,100
2023-11-28T22:01:07.546Z,100
2023-11-28T22:11:07.546Z,100
2023-11-28T22:21:07.545Z,100
2023-11-28T22:31:07.514Z,100
2023-11-28T22:41:07.714Z,99
2023-11-28T22:51:07.690Z,99
2023-11-28T23:01:07.796Z,97
2023-11-28T23:11:07.741Z,96
2023-11-28T23:21:07.582Z,92
2023-11-28T23:31:07.595Z,90
2023-11-28T23:41:07.629Z,91
